createdAt,value
2022-08-27T00:00:51.081Z,15.40
2022-08-27T00:01:52.609Z,15.33
2022-08-27T00:02:54.118Z,14.97
2022-08-27T00:03:56.132Z,15.00
2022-08-27T00:04:57.690Z,15.27
2022-08-27T00:05:59.157Z,15.20
2022-08-27T00:07:01.520Z,15.17
2022-08-27T00:08:05.703Z,15.90
2022-08-27T00:09:07.823Z,15.40
2022-08-27T00:10:13.319Z,15.03
2022-08-27T00:11:16.822Z,15.67
2022-08-27T00:12:18.587Z,15.63
2022-08-27T00:13:20.385Z,16.30
2022-08-27T00:14:22.672Z,14.30
2022-08-27T00:15:24.903Z,15.93
2022-08-27T00:16:26.713Z,14.93
2022-08-27T00:17:29.751Z,15.47
2022-08-27T00:18:31.284Z,13.80
2022-08-27T00:19:33.881Z,14.70
2022-08-27T00:20:35.342Z,15.70
2022-08-27T00:21:37.325Z,14.70
2022-08-27T00:22:38.816Z,15.33
2022-08-27T00:23:41.131Z,16.10
2022-08-27T00:24:48.519Z,14.83
2022-08-27T00:25:50.798Z,15.87
2022-08-27T00:26:53.791Z,15.03
2022-08-27T00:27:55.264Z,15.70
2022-08-27T00:28:57.244Z,15.47
2022-08-27T00:29:58.812Z,15.90
2022-08-27T00:31:00.557Z,16.00
2022-08-27T00:32:03.207Z,15.33
2022-08-27T00:33:04.798Z,16.10
2022-08-27T00:34:07.555Z,15.20
2022-08-27T00:35:10.648Z,15.97
2022-08-27T00:36:13.329Z,15.33
2022-08-27T00:37:15.074Z,15.47
2022-08-27T00:38:17.357Z,14.90
2022-08-27T00:39:20.627Z,14.50
2022-08-27T00:40:23.353Z,15.07
2022-08-27T00:41:25.682Z,14.50
2022-08-27T00:42:27.317Z,14.90
2022-08-27T00:43:54.060Z,15.17
2022-08-27T00:44:55.727Z,15.07
2022-08-27T00:46:05.364Z,14.40
2022-08-27T00:47:13.549Z,14.30
2022-08-27T00:48:18.390Z,15.30
2022-08-27T00:49:22.109Z,15.80
2022-08-27T00:50:37.243Z,14.47
2022-08-27T00:51:39.716Z,15.00
2022-08-27T00:53:03.588Z,14.63
2022-08-27T00:54:07.214Z,14.63
2022-08-27T00:55:14.223Z,14.30
2022-08-27T00:56:20.785Z,15.47
2022-08-27T00:57:22.733Z,15.50
2022-08-27T00:58:29.656Z,15.20
2022-08-27T00:59:32.872Z,15.80
2022-08-27T01:00:35.376Z,14.37
2022-08-27T01:01:57.350Z,15.47
2022-08-27T01:02:59.320Z,14.63
2022-08-27T01:04:05.864Z,14.57
2022-08-27T01:05:11.866Z,15.63
2022-08-27T01:06:16.259Z,15.60
2022-08-27T01:07:18.940Z,15.07
2022-08-27T01:08:26.349Z,15.03
2022-08-27T01:09:28.644Z,15.57
2022-08-27T01:10:30.444Z,15.00
2022-08-27T01:11:32.838Z,14.17
2022-08-27T01:12:35.773Z,15.37
2022-08-27T01:13:54.099Z,15.23
2022-08-27T01:15:01.283Z,15.73
2022-08-27T01:16:03.334Z,16.03
2022-08-27T01:17:09.280Z,15.53
2022-08-27T01:18:13.440Z,15.90
2022-08-27T01:19:43.694Z,15.10
2022-08-27T01:20:56.789Z,15.37
2022-08-27T01:22:23.401Z,15.80
2022-08-27T01:23:49.644Z,15.70
2022-08-27T01:24:55.071Z,15.33
2022-08-27T01:25:59.035Z,16.03
2022-08-27T01:27:02.437Z,15.97
2022-08-27T01:28:05.250Z,16.03
2022-08-27T01:29:07.196Z,14.60
2022-08-27T01:30:10.409Z,15.37
2022-08-27T01:31:13.094Z,14.90
2022-08-27T01:32:21.236Z,15.90
2022-08-27T01:33:23.966Z,14.77
2022-08-27T01:34:25.939Z,15.30
2022-08-27T01:35:36.572Z,16.40
2022-08-27T01:36:42.132Z,14.90
2022-08-27T01:37:47.660Z,14.67
2022-08-27T01:38:49.342Z,15.10
2022-08-27T01:39:51.734Z,15.53
2022-08-27T01:40:54.480Z,15.57
2022-08-27T01:42:04.395Z,15.40
2022-08-27T01:43:05.955Z,15.50
2022-08-27T01:44:08.028Z,15.17
2022-08-27T01:45:18.059Z,16.27
2022-08-27T01:46:25.155Z,16.27
2022-08-27T01:47:30.659Z,16.17
2022-08-27T01:48:33.058Z,15.17
2022-08-27T01:49:34.531Z,15.80
2022-08-27T01:50:41.446Z,15.27
2022-08-27T01:51:42.902Z,15.97
2022-08-27T01:52:45.282Z,16.67
2022-08-27T01:53:48.860Z,16.17
2022-08-27T01:54:53.564Z,14.73
2022-08-27T01:55:55.808Z,15.80
2022-08-27T01:56:57.254Z,15.93
2022-08-27T01:58:02.361Z,16.77
2022-08-27T01:59:04.036Z,18.27
2022-08-27T02:00:09.663Z,15.97
2022-08-27T02:01:17.191Z,16.97
2022-08-27T02:02:21.166Z,16.00
2022-08-27T02:03:23.334Z,15.50
2022-08-27T02:04:24.846Z,15.73
2022-08-27T02:05:28.191Z,15.97
2022-08-27T02:06:29.668Z,17.20
2022-08-27T02:07:31.440Z,16.27
2022-08-27T02:08:34.029Z,16.90
2022-08-27T02:09:36.281Z,16.23
2022-08-27T02:10:40.337Z,15.20
2022-08-27T02:11:44.816Z,15.90
2022-08-27T02:12:47.152Z,15.53
2022-08-27T02:13:48.946Z,17.03
2022-08-27T02:14:50.630Z,16.33
2022-08-27T02:15:52.428Z,17.17
2022-08-27T02:16:54.342Z,16.77
2022-08-27T02:17:56.071Z,17.10
2022-08-27T02:18:57.899Z,16.67
2022-08-27T02:20:00.903Z,16.50
2022-08-27T02:21:02.567Z,16.03
2022-08-27T02:22:04.357Z,16.03
2022-08-27T02:23:06.623Z,17.27
2022-08-27T02:24:08.134Z,17.27
2022-08-27T02:25:13.715Z,16.37
2022-08-27T02:26:15.487Z,15.20
2022-08-27T02:27:18.283Z,16.90
2022-08-27T02:28:20.143Z,16.67
2022-08-27T02:29:22.854Z,17.27
2022-08-27T02:30:24.776Z,16.50
2022-08-27T02:31:26.897Z,16.83
2022-08-27T02:32:32.114Z,16.97
2022-08-27T02:33:34.293Z,16.47
2022-08-27T02:34:35.822Z,17.40
2022-08-27T02:35:44.105Z,16.67
2022-08-27T02:36:45.610Z,16.03
2022-08-27T02:37:47.724Z,16.90
2022-08-27T02:38:49.254Z,15.70
2022-08-27T02:39:50.869Z,15.83
2022-08-27T02:40:54.075Z,16.00
2022-08-27T02:41:55.793Z,15.87
2022-08-27T02:42:57.607Z,15.50
2022-08-27T02:44:01.123Z,16.20
2022-08-27T02:45:04.102Z,15.60
2022-08-27T02:46:06.344Z,16.33
2022-08-27T02:47:07.853Z,16.17
2022-08-27T02:48:09.968Z,16.17
2022-08-27T02:49:12.252Z,15.57
2022-08-27T02:50:15.256Z,16.53
2022-08-27T02:51:17.024Z,15.50
2022-08-27T02:52:25.068Z,15.70
2022-08-27T02:53:28.465Z,15.43
2022-08-27T02:54:30.917Z,16.07
2022-08-27T02:55:33.619Z,15.37
2022-08-27T02:56:36.322Z,15.93
2022-08-27T02:57:37.836Z,16.30
2022-08-27T02:58:41.280Z,17.77
2022-08-27T02:59:43.176Z,16.27
2022-08-27T03:00:45.835Z,17.93
2022-08-27T03:01:48.756Z,16.40
2022-08-27T03:02:50.519Z,16.80
2022-08-27T03:03:52.530Z,15.90
2022-08-27T03:04:54.258Z,16.57
2022-08-27T03:05:57.919Z,16.17
2022-08-27T03:06:59.750Z,16.03
2022-08-27T03:08:03.765Z,15.80
2022-08-27T03:09:05.445Z,16.20
2022-08-27T03:10:08.228Z,16.23
2022-08-27T03:11:09.870Z,15.50
2022-08-27T03:12:13.202Z,16.00
2022-08-27T03:13:14.876Z,16.00
2022-08-27T03:14:16.331Z,15.10
2022-08-27T03:15:19.342Z,15.80
2022-08-27T03:16:21.640Z,16.30
2022-08-27T03:17:41.882Z,15.90
2022-08-27T03:18:43.777Z,17.13
2022-08-27T03:19:45.348Z,17.60
2022-08-27T03:20:52.721Z,17.60
2022-08-27T03:21:55.078Z,16.07
2022-08-27T03:22:56.928Z,16.53
2022-08-27T03:24:01.009Z,18.77
2022-08-27T03:25:13.686Z,16.80
2022-08-27T03:26:15.444Z,17.03
2022-08-27T03:27:17.270Z,17.57
2022-08-27T03:28:23.132Z,18.80
2022-08-27T03:29:25.341Z,17.57
2022-08-27T03:30:27.505Z,16.47
2022-08-27T03:31:29.393Z,16.50
2022-08-27T03:32:31.037Z,16.80
2022-08-27T03:33:36.165Z,16.33
2022-08-27T03:34:37.913Z,16.20
2022-08-27T03:35:39.728Z,17.30
2022-08-27T03:36:41.537Z,16.70
2022-08-27T03:37:43.462Z,16.43
2022-08-27T03:38:45.064Z,16.70
2022-08-27T03:39:46.540Z,18.00
2022-08-27T03:40:48.558Z,17.30
2022-08-27T03:41:55.296Z,17.50
2022-08-27T03:42:57.562Z,18.27
2022-08-27T03:43:59.377Z,17.63
2022-08-27T03:45:01.343Z,17.10
2022-08-27T03:46:02.972Z,17.03
2022-08-27T03:47:04.529Z,17.90
2022-08-27T03:48:06.209Z,16.80
2022-08-27T03:49:07.883Z,16.93
2022-08-27T03:50:10.034Z,17.23
2022-08-27T03:51:13.516Z,16.67
2022-08-27T03:52:15.079Z,16.80
2022-08-27T03:53:20.334Z,17.37
2022-08-27T03:54:21.883Z,18.40
2022-08-27T03:55:23.679Z,18.30
2022-08-27T03:56:25.122Z,16.33
2022-08-27T03:57:26.590Z,17.30
2022-08-27T03:58:28.261Z,17.47
2022-08-27T03:59:29.807Z,17.43
2022-08-27T04:00:31.318Z,18.00
2022-08-27T04:01:33.604Z,16.07
2022-08-27T04:02:35.405Z,18.13
2022-08-27T04:03:37.619Z,16.90
2022-08-27T04:04:39.482Z,16.60
2022-08-27T04:05:42.139Z,15.47
2022-08-27T04:06:47.309Z,16.17
2022-08-27T04:07:50.217Z,17.70
2022-08-27T04:08:52.407Z,16.90
2022-08-27T04:09:54.398Z,16.50
2022-08-27T04:10:56.150Z,18.03
2022-08-27T04:11:57.674Z,16.53
2022-08-27T04:12:59.777Z,16.40
2022-08-27T04:14:04.591Z,17.80
2022-08-27T04:15:19.864Z,15.97
2022-08-27T04:16:22.262Z,17.23
2022-08-27T04:17:23.798Z,15.30
2022-08-27T04:18:25.582Z,16.30
2022-08-27T04:19:30.277Z,17.10
2022-08-27T04:20:35.405Z,18.63
2022-08-27T04:21:37.500Z,16.47
2022-08-27T04:22:39.812Z,17.03
2022-08-27T04:23:43.254Z,16.40
2022-08-27T04:24:44.944Z,16.57
2022-08-27T04:25:46.540Z,16.10
2022-08-27T04:26:48.549Z,17.30
2022-08-27T04:27:50.509Z,16.20
2022-08-27T04:28:52.395Z,16.53
2022-08-27T04:29:59.148Z,16.87
2022-08-27T04:31:02.852Z,15.40
2022-08-27T04:32:05.273Z,16.67
2022-08-27T04:33:07.389Z,16.27
2022-08-27T04:34:09.174Z,16.43
2022-08-27T04:35:11.951Z,16.00
2022-08-27T04:36:13.948Z,16.30
2022-08-27T04:37:15.486Z,17.10
2022-08-27T04:38:24.930Z,16.83
2022-08-27T04:39:28.563Z,17.40
2022-08-27T04:40:50.084Z,16.63
2022-08-27T04:41:52.864Z,18.33
2022-08-27T04:42:54.685Z,17.77
2022-08-27T04:43:58.201Z,17.80
2022-08-27T04:44:59.700Z,18.73
2022-08-27T04:46:01.820Z,17.17
2022-08-27T04:47:05.301Z,15.70
2022-08-27T04:48:07.158Z,16.83
2022-08-27T04:49:12.466Z,15.90
2022-08-27T04:50:15.199Z,16.40
2022-08-27T04:51:18.403Z,16.20
2022-08-27T04:52:21.218Z,16.80
2022-08-27T04:53:23.386Z,17.37
2022-08-27T04:54:32.921Z,17.57
2022-08-27T04:55:34.799Z,16.40
2022-08-27T04:56:37.967Z,16.90
2022-08-27T04:57:39.689Z,18.40
2022-08-27T04:58:41.185Z,16.83
2022-08-27T04:59:43.038Z,16.60
2022-08-27T05:00:48.960Z,16.53
2022-08-27T05:01:50.747Z,16.33
2022-08-27T05:02:52.491Z,15.97
2022-08-27T05:03:54.883Z,16.60
2022-08-27T05:04:56.654Z,15.77
2022-08-27T05:06:04.058Z,16.47
2022-08-27T05:07:06.302Z,17.90
2022-08-27T05:08:08.579Z,17.77
2022-08-27T05:09:10.274Z,15.80
2022-08-27T05:10:12.452Z,16.03
2022-08-27T05:11:15.573Z,17.00
2022-08-27T05:12:17.008Z,16.43
2022-08-27T05:13:20.506Z,17.00
2022-08-27T05:14:24.292Z,15.63
2022-08-27T05:15:26.027Z,15.77
2022-08-27T05:16:27.578Z,16.47
2022-08-27T05:17:31.401Z,16.33
2022-08-27T05:18:37.639Z,16.30
2022-08-27T05:19:49.331Z,17.30
2022-08-27T05:20:51.044Z,15.93
2022-08-27T05:21:55.704Z,14.87
2022-08-27T05:22:58.090Z,15.83
2022-08-27T05:24:04.925Z,16.97
2022-08-27T05:25:07.035Z,15.13
2022-08-27T05:26:08.940Z,16.70
2022-08-27T05:27:11.666Z,16.33
2022-08-27T05:28:16.879Z,16.23
2022-08-27T05:29:18.704Z,17.03
2022-08-27T05:30:20.844Z,16.40
2022-08-27T05:31:23.185Z,17.50
2022-08-27T05:32:24.726Z,16.23
2022-08-27T05:33:26.454Z,16.90
2022-08-27T05:34:28.018Z,15.60
2022-08-27T05:35:31.266Z,17.23
2022-08-27T05:36:35.134Z,16.00
2022-08-27T05:37:36.973Z,17.50
2022-08-27T05:38:38.412Z,16.53
2022-08-27T05:39:39.999Z,15.50
2022-08-27T05:40:42.190Z,14.90
2022-08-27T05:41:44.028Z,16.03
2022-08-27T05:42:46.439Z,15.40
2022-08-27T05:43:52.089Z,16.30
2022-08-27T05:44:53.517Z,16.80
2022-08-27T05:45:55.603Z,16.83
2022-08-27T05:46:57.105Z,16.47
2022-08-27T05:47:58.789Z,16.70
2022-08-27T05:49:01.654Z,16.00
2022-08-27T05:50:03.865Z,16.63
2022-08-27T05:51:13.183Z,16.60
2022-08-27T05:52:14.653Z,15.70
2022-08-27T05:53:16.165Z,15.63
2022-08-27T05:54:21.269Z,16.47
2022-08-27T05:55:22.768Z,15.60
2022-08-27T05:56:27.909Z,17.07
2022-08-27T05:57:29.578Z,15.30
2022-08-27T05:58:50.205Z,16.20
2022-08-27T06:00:15.631Z,17.00
2022-08-27T06:01:22.590Z,18.23
2022-08-27T06:02:24.902Z,16.37
2022-08-27T06:03:26.655Z,15.87
2022-08-27T06:04:28.362Z,17.70
2022-08-27T06:05:29.979Z,17.47
2022-08-27T06:06:36.194Z,17.90
2022-08-27T06:07:38.108Z,17.80
2022-08-27T06:08:40.180Z,20.13
2022-08-27T06:09:41.674Z,17.07
2022-08-27T06:10:43.345Z,17.90
2022-08-27T06:11:46.391Z,19.00
2022-08-27T06:12:48.374Z,18.17
2022-08-27T06:13:50.102Z,17.70
2022-08-27T06:14:51.812Z,19.27
2022-08-27T06:16:07.253Z,17.97
2022-08-27T06:17:09.332Z,17.80
2022-08-27T06:18:13.485Z,18.27
2022-08-27T06:19:15.327Z,20.20
2022-08-27T06:20:17.170Z,18.37
2022-08-27T06:21:24.294Z,18.67
2022-08-27T06:22:26.685Z,19.53
2022-08-27T06:23:28.902Z,19.27
2022-08-27T06:24:30.659Z,19.60
2022-08-27T06:25:32.606Z,18.20
2022-08-27T06:26:34.408Z,18.40
2022-08-27T06:27:36.307Z,16.90
2022-08-27T06:28:41.269Z,17.77
2022-08-27T06:29:43.757Z,17.33
2022-08-27T06:30:45.712Z,17.37
2022-08-27T06:31:48.553Z,18.00
2022-08-27T06:32:51.547Z,16.67
2022-08-27T06:33:54.785Z,16.57
2022-08-27T06:34:56.532Z,20.70
2022-08-27T06:36:02.821Z,18.53
2022-08-27T06:37:04.779Z,19.40
2022-08-27T06:38:09.117Z,19.20
2022-08-27T06:39:15.421Z,18.77
2022-08-27T06:40:18.854Z,20.10
2022-08-27T06:41:24.039Z,18.70
2022-08-27T06:42:26.864Z,19.17
2022-08-27T06:43:28.327Z,18.07
2022-08-27T06:44:30.077Z,18.60
2022-08-27T06:45:31.755Z,18.63
2022-08-27T06:46:33.329Z,19.20
2022-08-27T06:47:35.029Z,18.70
2022-08-27T06:48:37.328Z,17.77
2022-08-27T06:49:40.825Z,18.80
2022-08-27T06:50:43.769Z,17.80
2022-08-27T06:51:47.103Z,18.03
2022-08-27T06:52:48.677Z,17.67
2022-08-27T06:53:50.904Z,19.30
2022-08-27T06:54:52.370Z,20.27
2022-08-27T06:55:54.042Z,18.43
2022-08-27T06:56:59.510Z,20.33
2022-08-27T06:58:01.478Z,19.10
2022-08-27T06:59:11.524Z,18.83
2022-08-27T07:00:13.909Z,18.90
2022-08-27T07:01:18.675Z,18.40
2022-08-27T07:02:20.953Z,19.00
2022-08-27T07:03:22.824Z,19.33
2022-08-27T07:04:32.759Z,18.80
2022-08-27T07:05:35.962Z,19.20
2022-08-27T07:06:38.667Z,18.60
2022-08-27T07:07:46.747Z,18.17
2022-08-27T07:08:53.664Z,18.73
2022-08-27T07:09:55.400Z,18.33
2022-08-27T07:10:57.571Z,18.43
2022-08-27T07:11:59.699Z,16.77
2022-08-27T07:13:01.384Z,17.63
2022-08-27T07:14:03.245Z,16.73
2022-08-27T07:15:05.431Z,18.10
2022-08-27T07:16:12.669Z,17.03
2022-08-27T07:17:17.283Z,16.60
2022-08-27T07:18:18.729Z,16.10
2022-08-27T07:19:30.272Z,18.53
2022-08-27T07:20:33.024Z,17.30
2022-08-27T07:21:35.625Z,17.70
2022-08-27T07:22:40.556Z,16.97
2022-08-27T07:23:42.458Z,17.50
2022-08-27T07:24:43.998Z,18.47
2022-08-27T07:25:45.798Z,16.90
2022-08-27T07:26:47.415Z,17.83
2022-08-27T07:27:49.554Z,16.90
2022-08-27T07:28:51.857Z,17.08
2022-08-27T07:29:54.004Z,16.47
2022-08-27T07:30:55.605Z,16.50
2022-08-27T07:31:57.455Z,17.52
2022-08-27T07:32:59.019Z,17.27
2022-08-27T07:34:00.466Z,16.00
2022-08-27T07:35:03.009Z,16.08
2022-08-27T07:36:08.012Z,16.50
2022-08-27T07:37:09.992Z,15.40
2022-08-27T07:38:12.315Z,17.17
2022-08-27T07:39:16.654Z,16.17
2022-08-27T07:40:18.371Z,16.38
2022-08-27T07:41:20.442Z,15.30
2022-08-27T07:42:40.516Z,15.95
2022-08-27T07:44:01.446Z,17.00
2022-08-27T07:45:03.863Z,15.93
2022-08-27T07:46:05.725Z,17.10
2022-08-27T07:47:07.657Z,16.85
2022-08-27T07:48:09.523Z,15.60
2022-08-27T07:49:11.369Z,15.02
2022-08-27T07:50:12.879Z,14.85
2022-08-27T07:51:20.051Z,14.27
2022-08-27T07:52:25.906Z,15.05
2022-08-27T07:53:28.358Z,14.70
2022-08-27T07:54:29.907Z,16.55
2022-08-27T07:55:31.736Z,15.30
2022-08-27T07:56:33.531Z,15.82
2022-08-27T07:57:35.255Z,14.43
2022-08-27T07:58:37.346Z,16.20
2022-08-27T07:59:39.115Z,14.98
2022-08-27T08:00:43.278Z,14.30
2022-08-27T08:01:45.411Z,15.90
2022-08-27T08:02:47.732Z,15.02
2022-08-27T08:03:50.233Z,15.23
2022-08-27T08:04:51.974Z,18.10
2022-08-27T08:05:53.646Z,17.50
2022-08-27T08:06:55.915Z,16.08
2022-08-27T08:07:57.815Z,15.75
2022-08-27T08:09:00.082Z,14.93
2022-08-27T08:10:02.347Z,16.60
2022-08-27T08:11:04.214Z,15.85
2022-08-27T08:12:06.072Z,16.00
2022-08-27T08:13:07.911Z,14.85
2022-08-27T08:14:09.406Z,15.20
2022-08-27T08:15:12.157Z,15.52
2022-08-27T08:16:14.633Z,16.45
2022-08-27T08:17:16.293Z,15.63
2022-08-27T08:18:18.283Z,16.27
2022-08-27T08:19:22.547Z,15.68
2022-08-27T08:20:36.032Z,16.27
2022-08-27T08:21:45.608Z,14.38
2022-08-27T08:22:48.896Z,15.13
2022-08-27T08:23:50.566Z,15.25
2022-08-27T08:24:52.558Z,14.43
2022-08-27T08:25:55.674Z,15.70
2022-08-27T08:26:57.224Z,16.33
2022-08-27T08:28:06.022Z,15.35
2022-08-27T08:29:07.582Z,14.63
2022-08-27T08:30:11.199Z,14.57
2022-08-27T08:31:13.449Z,15.13
2022-08-27T08:32:15.998Z,13.60
2022-08-27T08:33:17.580Z,14.35
2022-08-27T08:34:19.883Z,14.27
2022-08-27T08:35:21.527Z,13.68
2022-08-27T08:36:23.184Z,13.82
2022-08-27T08:37:24.980Z,14.25
2022-08-27T08:38:28.087Z,15.20
2022-08-27T08:39:30.515Z,13.45
2022-08-27T08:40:37.223Z,14.18
2022-08-27T08:41:39.059Z,15.68
2022-08-27T08:42:46.979Z,13.63
2022-08-27T08:43:52.484Z,13.80
2022-08-27T08:44:55.269Z,13.52
2022-08-27T08:46:02.468Z,13.95
2022-08-27T08:47:39.003Z,14.02
2022-08-27T08:48:45.150Z,14.82
2022-08-27T08:50:17.964Z,14.32
2022-08-27T08:51:36.672Z,15.27
2022-08-27T08:52:54.180Z,12.70
2022-08-27T08:54:01.918Z,13.88
2022-08-27T08:55:13.494Z,14.15
2022-08-27T08:56:55.038Z,14.38
2022-08-27T08:58:24.517Z,14.90
2022-08-27T08:59:45.976Z,14.35
2022-08-27T09:00:54.389Z,14.00
2022-08-27T09:01:58.085Z,13.23
2022-08-27T09:02:59.698Z,13.18
2022-08-27T09:04:05.089Z,13.40
2022-08-27T09:05:08.623Z,13.73
2022-08-27T09:06:39.298Z,14.25
2022-08-27T09:07:49.653Z,16.15
2022-08-27T09:08:51.519Z,13.13
2022-08-27T09:10:12.093Z,12.90
2022-08-27T09:11:35.594Z,14.35
2022-08-27T09:12:37.687Z,12.75
2022-08-27T09:13:43.357Z,14.23
2022-08-27T09:14:59.549Z,13.70
2022-08-27T09:16:04.738Z,13.38
2022-08-27T09:17:10.657Z,13.70
2022-08-27T09:18:15.350Z,13.75
2022-08-27T09:19:17.055Z,13.70
2022-08-27T09:20:26.058Z,13.05
2022-08-27T09:21:49.646Z,14.10
2022-08-27T09:23:28.710Z,15.00
2022-08-27T09:24:57.810Z,13.88
2022-08-27T09:25:59.749Z,14.38
2022-08-27T09:27:01.735Z,13.65
2022-08-27T09:28:52.095Z,13.38
2022-08-27T09:29:55.854Z,13.90
2022-08-27T09:31:08.002Z,13.38
2022-08-27T09:32:09.921Z,14.88
2022-08-27T09:33:12.680Z,14.45
2022-08-27T09:34:15.133Z,14.98
2022-08-27T09:35:16.954Z,13.93
2022-08-27T09:36:23.584Z,14.32
2022-08-27T09:37:34.456Z,13.48
2022-08-27T09:38:36.922Z,15.32
2022-08-27T09:40:01.611Z,14.00
2022-08-27T09:41:07.689Z,15.00
2022-08-27T09:42:21.738Z,13.60
2022-08-27T09:43:27.022Z,13.65
2022-08-27T09:44:28.564Z,14.73
2022-08-27T09:45:30.765Z,15.15
2022-08-27T09:46:32.829Z,14.73
2022-08-27T09:47:49.242Z,14.27
2022-08-27T09:48:52.264Z,13.73
2022-08-27T09:50:09.281Z,14.95
2022-08-27T09:51:14.562Z,13.65
2022-08-27T09:52:38.333Z,14.25
2022-08-27T09:53:44.752Z,14.55
2022-08-27T09:54:48.207Z,14.35
2022-08-27T09:55:54.548Z,15.82
2022-08-27T09:56:59.096Z,14.88
2022-08-27T09:58:03.333Z,13.80
2022-08-27T09:59:20.644Z,14.25
2022-08-27T10:00:39.524Z,14.55
2022-08-27T10:01:57.748Z,15.35
2022-08-27T10:03:01.836Z,14.57
2022-08-27T10:04:15.553Z,14.57
2022-08-27T10:05:32.275Z,14.48
2022-08-27T10:06:33.974Z,15.10
2022-08-27T10:07:56.747Z,14.98
2022-08-27T10:09:15.358Z,15.13
2022-08-27T10:10:21.768Z,14.80
2022-08-27T10:11:34.697Z,12.73
2022-08-27T10:12:47.940Z,13.40
2022-08-27T10:14:13.683Z,13.40
2022-08-27T10:15:15.730Z,13.98
2022-08-27T10:16:20.302Z,14.18
2022-08-27T10:17:46.974Z,15.10
2022-08-27T10:19:00.369Z,14.80
2022-08-27T10:20:30.628Z,13.77
2022-08-27T10:21:44.839Z,14.23
2022-08-27T10:23:14.112Z,14.68
2022-08-27T10:24:33.500Z,13.95
2022-08-27T10:25:51.814Z,12.70
2022-08-27T10:27:09.549Z,12.82
2022-08-27T10:28:29.363Z,13.52
2022-08-27T10:29:50.835Z,13.68
2022-08-27T10:30:58.164Z,11.88
2022-08-27T10:32:04.229Z,11.77
2022-08-27T10:33:11.619Z,13.00
2022-08-27T10:34:46.044Z,12.05
2022-08-27T10:36:00.011Z,12.25
2022-08-27T10:37:11.258Z,12.55
2022-08-27T10:38:15.756Z,12.95
2022-08-27T10:39:29.988Z,11.30
2022-08-27T10:40:49.683Z,14.30
2022-08-27T10:42:11.392Z,12.23
2022-08-27T10:43:45.827Z,12.13
2022-08-27T10:45:04.278Z,11.00
2022-08-27T10:46:26.988Z,11.75
2022-08-27T10:47:59.661Z,12.27
2022-08-27T10:49:13.564Z,11.38
2022-08-27T10:50:26.788Z,12.07
2022-08-27T10:52:00.385Z,11.27
2022-08-27T10:53:34.826Z,11.02
2022-08-27T10:54:51.652Z,11.15
2022-08-27T10:56:06.345Z,10.60
2022-08-27T10:57:45.423Z,10.65
2022-08-27T10:58:58.438Z,10.85
2022-08-27T11:00:23.237Z,10.65
2022-08-27T11:01:28.031Z,11.95
2022-08-27T11:02:36.501Z,10.77
2022-08-27T11:03:51.350Z,10.93
2022-08-27T11:05:14.767Z,11.05
2022-08-27T11:06:30.485Z,11.40
2022-08-27T11:07:40.301Z,11.05
2022-08-27T11:08:50.020Z,11.57
2022-08-27T11:10:00.106Z,10.30
2022-08-27T11:11:45.440Z,10.18
2022-08-27T11:12:34.245Z,11.02
2022-08-27T11:13:46.720Z,10.60
2022-08-27T11:15:20.254Z,10.35
2022-08-27T11:16:27.308Z,10.73
2022-08-27T11:17:38.123Z,10.98
2022-08-27T11:18:47.458Z,10.73
2022-08-27T11:20:13.839Z,10.23
2022-08-27T11:21:37.083Z,10.18
2022-08-27T11:22:50.360Z,10.32
2022-08-27T11:24:08.517Z,10.00
2022-08-27T11:25:32.593Z,10.43
2022-08-27T11:26:38.185Z,9.68
2022-08-27T11:27:42.447Z,9.80
2022-08-27T11:28:47.664Z,10.00
2022-08-27T11:30:12.673Z,11.00
2022-08-27T11:31:26.273Z,10.68
2022-08-27T11:32:54.831Z,9.70
2022-08-27T11:34:13.089Z,8.63
2022-08-27T11:35:28.839Z,10.73
2022-08-27T11:37:10.662Z,9.20
2022-08-27T11:38:46.313Z,10.35
2022-08-27T11:40:32.672Z,10.15
2022-08-27T11:41:52.187Z,9.05
2022-08-27T11:43:00.406Z,10.80
2022-08-27T11:44:03.131Z,10.57
2022-08-27T11:45:24.497Z,10.82
2022-08-27T11:46:28.420Z,11.10
2022-08-27T11:47:30.150Z,10.90
2022-08-27T11:48:39.813Z,11.85
2022-08-27T11:49:48.650Z,11.77
2022-08-27T11:51:02.458Z,11.63
2022-08-27T11:52:10.040Z,12.13
2022-08-27T11:53:11.617Z,11.88
2022-08-27T11:54:27.068Z,11.48
2022-08-27T11:55:33.040Z,11.73
2022-08-27T11:56:42.153Z,13.20
2022-08-27T11:57:45.090Z,11.45
2022-08-27T11:58:52.604Z,12.50
2022-08-27T11:59:55.770Z,12.55
2022-08-27T12:01:02.242Z,11.55
2022-08-27T12:02:26.240Z,11.40
2022-08-27T12:03:31.571Z,11.48
2022-08-27T12:04:37.093Z,12.00
2022-08-27T12:05:46.413Z,11.10
2022-08-27T12:07:13.805Z,10.70
2022-08-27T12:08:36.090Z,10.82
2022-08-27T12:09:52.456Z,11.48
2022-08-27T12:11:29.885Z,11.70
2022-08-27T12:12:44.159Z,10.57
2022-08-27T12:14:14.512Z,10.60
2022-08-27T12:15:27.548Z,10.57
2022-08-27T12:17:03.936Z,10.93
2022-08-27T12:18:26.007Z,12.30
2022-08-27T12:19:30.930Z,10.75
2022-08-27T12:20:37.999Z,10.68
2022-08-27T12:21:39.595Z,11.70
2022-08-27T12:23:01.340Z,11.60
2022-08-27T12:24:15.219Z,11.25
2022-08-27T12:25:22.490Z,10.43
2022-08-27T12:26:31.771Z,11.35
2022-08-27T12:27:35.325Z,12.18
2022-08-27T12:28:36.831Z,10.50
2022-08-27T12:29:58.862Z,11.75
2022-08-27T12:31:01.390Z,10.63
2022-08-27T12:32:39.201Z,10.88
2022-08-27T12:33:47.145Z,11.55
2022-08-27T12:35:04.004Z,11.55
2022-08-27T12:36:11.017Z,9.85
2022-08-27T12:37:13.438Z,11.18
2022-08-27T12:38:38.501Z,11.15
2022-08-27T12:39:43.775Z,10.57
2022-08-27T12:40:52.391Z,10.85
2022-08-27T12:41:54.777Z,9.38
2022-08-27T12:43:13.671Z,10.80
2022-08-27T12:44:32.990Z,10.75
2022-08-27T12:45:41.330Z,9.52
2022-08-27T12:46:58.114Z,10.75
2022-08-27T12:47:59.788Z,11.95
2022-08-27T12:49:36.765Z,11.18
2022-08-27T12:50:30.488Z,10.35
2022-08-27T12:51:37.315Z,10.45
2022-08-27T12:53:08.709Z,10.27
2022-08-27T12:54:31.820Z,10.55
2022-08-27T12:56:08.681Z,10.55
2022-08-27T12:57:31.610Z,11.15
2022-08-27T12:58:42.130Z,10.20
2022-08-27T12:59:57.650Z,11.13
2022-08-27T13:01:26.574Z,11.60
2022-08-27T13:02:34.924Z,10.25
2022-08-27T13:03:41.335Z,11.20
2022-08-27T13:04:43.722Z,12.38
2022-08-27T13:05:49.376Z,10.88
2022-08-27T13:06:51.401Z,11.32
2022-08-27T13:07:54.006Z,10.50
2022-08-27T13:08:59.237Z,11.23
2022-08-27T13:10:19.775Z,10.82
2022-08-27T13:11:24.462Z,9.82
2022-08-27T13:12:26.536Z,10.70
2022-08-27T13:13:28.319Z,10.50
2022-08-27T13:14:37.180Z,10.05
2022-08-27T13:15:47.697Z,11.40
2022-08-27T13:17:05.697Z,10.23
2022-08-27T13:18:09.028Z,10.68
2022-08-27T13:19:36.434Z,10.82
2022-08-27T13:20:40.596Z,11.13
2022-08-27T13:21:48.915Z,11.00
2022-08-27T13:22:52.923Z,11.98
2022-08-27T13:23:58.775Z,11.25
2022-08-27T13:25:00.276Z,11.55
2022-08-27T13:26:10.269Z,10.38
2022-08-27T13:27:11.949Z,10.93
2022-08-27T13:28:17.037Z,11.10
2022-08-27T13:29:18.781Z,11.35
2022-08-27T13:30:35.562Z,11.23
2022-08-27T13:31:38.586Z,11.60
2022-08-27T13:32:41.124Z,11.25
2022-08-27T13:33:44.200Z,11.30
2022-08-27T13:34:46.122Z,10.70
2022-08-27T13:35:47.907Z,12.00
2022-08-27T13:37:07.954Z,10.98
2022-08-27T13:38:09.686Z,11.02
2022-08-27T13:39:11.459Z,11.43
2022-08-27T13:40:28.730Z,11.43
2022-08-27T13:41:36.412Z,11.40
2022-08-27T13:42:45.344Z,9.95
2022-08-27T13:43:49.633Z,11.68
2022-08-27T13:44:53.714Z,11.32
2022-08-27T13:45:56.225Z,10.50
2022-08-27T13:47:05.698Z,10.80
2022-08-27T13:48:08.361Z,10.13
2022-08-27T13:49:18.050Z,11.18
2022-08-27T13:50:31.493Z,10.88
2022-08-27T13:51:35.385Z,11.77
2022-08-27T13:52:59.700Z,11.48
2022-08-27T13:54:13.789Z,11.32
2022-08-27T13:55:18.198Z,11.63
2022-08-27T13:56:29.471Z,12.27
2022-08-27T13:57:40.111Z,11.13
2022-08-27T13:58:41.878Z,11.90
2022-08-27T13:59:43.824Z,11.43
2022-08-27T14:00:45.677Z,12.07
2022-08-27T14:02:11.199Z,11.38
2022-08-27T14:03:34.491Z,10.68
2022-08-27T14:04:35.955Z,11.30
2022-08-27T14:05:48.034Z,11.52
2022-08-27T14:06:50.230Z,11.48
2022-08-27T14:08:01.359Z,11.75
2022-08-27T14:09:23.319Z,11.63
2022-08-27T14:10:41.809Z,10.77
2022-08-27T14:11:43.952Z,12.00
2022-08-27T14:13:19.512Z,11.30
2022-08-27T14:14:21.198Z,11.02
2022-08-27T14:15:31.858Z,11.57
2022-08-27T14:16:34.995Z,11.68
2022-08-27T14:17:38.252Z,11.88
2022-08-27T14:18:59.803Z,10.77
2022-08-27T14:20:02.488Z,11.35
2022-08-27T14:21:06.118Z,11.50
2022-08-27T14:22:07.752Z,11.05
2022-08-27T14:23:09.270Z,12.02
2022-08-27T14:24:12.933Z,10.93